Bushey, United Kingdom
Current Conditions -  °F | °C
As of 3:50 PM on Friday 21 Nov 2014 (Local Time) from EGWU Reporting Station
Haze Haze  
Wind Chill: 45°   Ceiling: 8000
Heat Index: 48°   Visibility: 3mi
Dew Point: 43°   Wind: 8mph
Humidity: 82%   Direction: 120°ESE
Pressure: 29.97"   Gusts: NA
Location:  51.64°N, 0.36°W
Report Text: EGWU 211550Z 12007KT 5000 HZ FEW012 SCT050 OVC080 09/06 Q1015 WHT TEMPO 4000 -RADZ SCT012 GRN
Loading
Personal Weather Stations






























Interactive Weather Map New forecast layout! Learn more

10-Day Weather Forecast

Advertisements
Track Severe Weather on mobile